createdAt,value
2022-11-06T00:00:33.339Z,1002.73
2022-11-06T00:01:33.372Z,1002.69
2022-11-06T00:02:33.369Z,1002.64
2022-11-06T00:03:33.315Z,1002.64
2022-11-06T00:04:33.291Z,1002.62
2022-11-06T00:05:33.294Z,1002.64
2022-11-06T00:06:33.281Z,1002.65
2022-11-06T00:07:33.260Z,1002.65
2022-11-06T00:08:33.251Z,1002.65
2022-11-06T00:09:33.247Z,1002.70
2022-11-06T00:10:33.222Z,1002.65
2022-11-06T00:11:33.238Z,1002.65
2022-11-06T00:12:33.206Z,1002.66
2022-11-06T00:13:33.219Z,1002.63
2022-11-06T00:14:33.199Z,1002.67
2022-11-06T00:15:33.188Z,1002.65
2022-11-06T00:16:33.185Z,1002.65
2022-11-06T00:17:33.165Z,1002.67
2022-11-06T00:18:33.137Z,1002.69
2022-11-06T00:19:33.139Z,1002.66
2022-11-06T00:20:33.120Z,1002.65
2022-11-06T00:21:33.136Z,1002.65
2022-11-06T00:22:33.097Z,1002.67
2022-11-06T00:23:33.112Z,1002.62
2022-11-06T00:24:33.076Z,1002.63
2022-11-06T00:25:33.084Z,1002.63
2022-11-06T00:26:33.103Z,1002.69
2022-11-06T00:27:33.045Z,1002.66
2022-11-06T00:28:33.061Z,1002.67
2022-11-06T00:29:33.040Z,1002.66
2022-11-06T00:30:33.018Z,1002.66
2022-11-06T00:31:33.010Z,1002.68
2022-11-06T00:32:33.019Z,1002.71
2022-11-06T00:33:32.998Z,1002.69
2022-11-06T00:34:32.966Z,1002.68
2022-11-06T00:35:32.964Z,1002.69
2022-11-06T00:36:32.971Z,1002.63
2022-11-06T00:37:32.947Z,1002.68
2022-11-06T00:38:32.949Z,1002.68
2022-11-06T00:39:32.926Z,1002.71
2022-11-06T00:40:32.913Z,1002.67
2022-11-06T00:41:32.917Z,1002.66
2022-11-06T00:42:32.879Z,1002.66
2022-11-06T00:43:32.892Z,1002.66
2022-11-06T00:44:32.868Z,1002.74
2022-11-06T00:45:32.870Z,1002.72
2022-11-06T00:46:32.846Z,1002.71
2022-11-06T00:47:32.837Z,1002.69
2022-11-06T00:48:32.838Z,1002.69
2022-11-06T00:49:32.827Z,1002.70
2022-11-06T00:50:32.791Z,1002.70
2022-11-06T00:51:32.806Z,1002.69
2022-11-06T00:52:32.952Z,1002.75
2022-11-06T00:53:32.778Z,1002.73
2022-11-06T00:54:32.787Z,1002.69
2022-11-06T00:55:32.776Z,1002.67
2022-11-06T00:56:32.736Z,1002.71
2022-11-06T00:57:32.742Z,1002.71
2022-11-06T00:58:32.780Z,1002.69
2022-11-06T00:59:32.711Z,1002.67
2022-11-06T01:00:32.699Z,1002.66
2022-11-06T01:01:32.860Z,1002.67
2022-11-06T01:02:32.837Z,1002.64
2022-11-06T01:03:32.675Z,1002.65
2022-11-06T01:04:32.691Z,1002.63
2022-11-06T01:05:32.668Z,1002.62
2022-11-06T01:06:32.653Z,1002.62
2022-11-06T01:07:32.619Z,1002.65
2022-11-06T01:08:32.615Z,1002.64
2022-11-06T01:09:32.631Z,1002.64
2022-11-06T01:10:32.590Z,1002.65
2022-11-06T01:11:52.356Z,1002.63
2022-11-06T01:12:32.564Z,1002.61
2022-11-06T01:13:32.572Z,1002.59
2022-11-06T01:14:32.540Z,1002.61
2022-11-06T01:15:32.563Z,1002.59
2022-11-06T01:16:32.528Z,1002.57
2022-11-06T01:17:32.524Z,1002.54
2022-11-06T01:18:32.501Z,1002.56
2022-11-06T01:19:32.506Z,1002.53
2022-11-06T01:20:32.475Z,1002.56
2022-11-06T01:21:32.515Z,1002.54
2022-11-06T01:22:32.570Z,1002.52
2022-11-06T01:23:32.459Z,1002.51
2022-11-06T01:24:32.518Z,1002.50
2022-11-06T01:25:32.430Z,1002.51
2022-11-06T01:26:38.245Z,1002.50
2022-11-06T01:27:32.426Z,1002.50
2022-11-06T01:28:32.442Z,1002.46
2022-11-06T01:29:32.392Z,1002.51
2022-11-06T01:30:32.382Z,1002.47
2022-11-06T01:31:32.381Z,1002.43
2022-11-06T01:32:32.363Z,1002.44
2022-11-06T01:33:32.354Z,1002.41
2022-11-06T01:34:32.322Z,1002.39
2022-11-06T01:35:32.329Z,1002.39
2022-11-06T01:36:32.322Z,1002.38
2022-11-06T01:37:32.338Z,1002.39
2022-11-06T01:38:32.282Z,1002.32
2022-11-06T01:39:32.292Z,1002.30
2022-11-06T01:40:32.261Z,1002.25
2022-11-06T01:41:32.273Z,1002.21
2022-11-06T01:42:32.243Z,1002.19
2022-11-06T01:43:32.338Z,1002.17
2022-11-06T01:44:32.236Z,1002.13
2022-11-06T01:45:32.225Z,1002.12
2022-11-06T01:46:32.201Z,1002.12
2022-11-06T01:47:32.201Z,1002.08
2022-11-06T01:48:32.175Z,1002.07
2022-11-06T01:49:32.254Z,1002.06
2022-11-06T01:50:32.162Z,1002.07
2022-11-06T01:51:32.230Z,1002.04
2022-11-06T01:52:32.151Z,1002.07
2022-11-06T01:53:32.132Z,1002.12
2022-11-06T01:54:32.138Z,1002.09
2022-11-06T01:55:32.116Z,1002.11
2022-11-06T01:56:32.093Z,1002.10
2022-11-06T01:57:32.096Z,1002.09
2022-11-06T01:58:32.077Z,1002.06
2022-11-06T01:59:32.062Z,1002.04
2022-11-06T02:00:32.075Z,1002.05
2022-11-06T02:01:32.139Z,1002.02
2022-11-06T02:02:32.280Z,1002.03
2022-11-06T02:03:32.031Z,1002.02
2022-11-06T02:04:32.013Z,1002.03
2022-11-06T02:05:32.029Z,1002.03
2022-11-06T02:06:31.980Z,1002.03
2022-11-06T02:07:32.132Z,1002.04
2022-11-06T02:08:31.970Z,1002.03
2022-11-06T02:09:31.968Z,1002.03
2022-11-06T02:10:31.957Z,1002.01
2022-11-06T02:11:31.936Z,1001.99
2022-11-06T02:12:31.956Z,1001.96
2022-11-06T02:13:31.926Z,1001.94
2022-11-06T02:14:31.914Z,1001.89
2022-11-06T02:15:31.897Z,1001.93
2022-11-06T02:16:31.879Z,1001.90
2022-11-06T02:17:31.889Z,1001.91
2022-11-06T02:18:31.859Z,1001.91
2022-11-06T02:19:31.853Z,1001.89
2022-11-06T02:20:31.860Z,1001.88
2022-11-06T02:21:31.842Z,1001.84
2022-11-06T02:22:31.805Z,1001.87
2022-11-06T02:23:31.837Z,1001.83
2022-11-06T02:24:31.805Z,1001.81
2022-11-06T02:25:31.833Z,1001.79
2022-11-06T02:26:31.846Z,1001.77
2022-11-06T02:27:31.774Z,1001.77
2022-11-06T02:28:31.748Z,1001.78
2022-11-06T02:29:31.753Z,1001.79
2022-11-06T02:30:31.717Z,1001.76
2022-11-06T02:31:31.801Z,1001.77
2022-11-06T02:32:31.707Z,1001.79
2022-11-06T02:33:31.706Z,1001.80
2022-11-06T02:34:31.680Z,1001.77
2022-11-06T02:35:31.682Z,1001.77
2022-11-06T02:36:31.688Z,1001.78
2022-11-06T02:37:31.661Z,1001.76
2022-11-06T02:38:31.647Z,1001.73
2022-11-06T02:39:31.650Z,1001.71
2022-11-06T02:40:31.621Z,1001.71
2022-11-06T02:41:31.648Z,1001.70
2022-11-06T02:42:31.596Z,1001.65
2022-11-06T02:43:31.588Z,1001.67
2022-11-06T02:44:31.668Z,1001.64
2022-11-06T02:45:31.579Z,1001.66
2022-11-06T02:46:31.612Z,1001.65
2022-11-06T02:47:31.569Z,1001.65
2022-11-06T02:48:31.546Z,1001.63
2022-11-06T02:49:31.560Z,1001.64
2022-11-06T02:50:31.510Z,1001.64
2022-11-06T02:51:31.513Z,1001.62
2022-11-06T02:52:31.520Z,1001.61
2022-11-06T02:53:31.504Z,1001.63
2022-11-06T02:54:31.503Z,1001.61
2022-11-06T02:55:31.469Z,1001.59
2022-11-06T02:56:31.471Z,1001.59
2022-11-06T02:57:31.450Z,1001.55
2022-11-06T02:58:31.444Z,1001.54
2022-11-06T02:59:31.431Z,1001.53
2022-11-06T03:00:31.407Z,1001.51
2022-11-06T03:01:31.572Z,1001.55
2022-11-06T03:02:31.544Z,1001.54
2022-11-06T03:03:31.400Z,1001.53
2022-11-06T03:04:31.362Z,1001.52
2022-11-06T03:05:31.367Z,1001.53
2022-11-06T03:06:31.340Z,1001.53
2022-11-06T03:07:31.384Z,1001.47
2022-11-06T03:08:31.329Z,1001.48
2022-11-06T03:09:31.319Z,1001.48
2022-11-06T03:10:31.303Z,1001.46
2022-11-06T03:11:31.298Z,1001.42
2022-11-06T03:12:31.299Z,1001.37
2022-11-06T03:13:31.284Z,1001.36
2022-11-06T03:14:31.256Z,1001.36
2022-11-06T03:15:31.255Z,1001.35
2022-11-06T03:16:31.263Z,1001.37
2022-11-06T03:17:31.282Z,1001.40
2022-11-06T03:18:31.236Z,1001.37
2022-11-06T03:19:31.221Z,1001.40
2022-11-06T03:20:31.212Z,1001.41
2022-11-06T03:21:31.201Z,1001.44
2022-11-06T03:22:31.173Z,1001.38
2022-11-06T03:23:31.629Z,1001.43
2022-11-06T03:24:31.484Z,1001.42
2022-11-06T03:25:31.152Z,1001.41
2022-11-06T03:26:31.133Z,1001.47
2022-11-06T03:27:31.149Z,1001.47
2022-11-06T03:28:31.108Z,1001.47
2022-11-06T03:29:31.109Z,1001.47
2022-11-06T03:30:31.080Z,1001.48
2022-11-06T03:31:31.081Z,1001.49
2022-11-06T03:32:31.073Z,1001.48
2022-11-06T03:33:31.120Z,1001.49
2022-11-06T03:34:31.079Z,1001.47
2022-11-06T03:35:31.039Z,1001.45
2022-11-06T03:36:31.037Z,1001.43
2022-11-06T03:37:31.011Z,1001.42
2022-11-06T03:38:31.054Z,1001.44
2022-11-06T03:39:30.989Z,1001.44
2022-11-06T03:40:30.982Z,1001.44
2022-11-06T03:41:30.971Z,1001.42
2022-11-06T03:42:30.982Z,1001.45
2022-11-06T03:43:31.180Z,1001.43
2022-11-06T03:44:30.958Z,1001.43
2022-11-06T03:45:30.925Z,1001.38
2022-11-06T03:46:30.934Z,1001.36
2022-11-06T03:47:30.918Z,1001.33
2022-11-06T03:48:30.909Z,1001.33
2022-11-06T03:49:30.884Z,1001.37
2022-11-06T03:50:30.885Z,1001.39
2022-11-06T03:51:30.861Z,1001.38
2022-11-06T03:52:30.860Z,1001.36
2022-11-06T03:53:30.870Z,1001.40
2022-11-06T03:54:30.857Z,1001.41
2022-11-06T03:55:30.825Z,1001.40
2022-11-06T03:56:30.812Z,1001.42
2022-11-06T03:57:30.812Z,1001.37
2022-11-06T03:58:30.856Z,1001.37
2022-11-06T03:59:30.791Z,1001.38
2022-11-06T04:00:30.787Z,1001.39
2022-11-06T04:01:30.873Z,1001.38
2022-11-06T04:02:30.914Z,1001.42
2022-11-06T04:03:30.758Z,1001.37
2022-11-06T04:04:30.732Z,1001.42
2022-11-06T04:05:30.726Z,1001.43
2022-11-06T04:06:30.728Z,1001.40
2022-11-06T04:07:30.687Z,1001.40
2022-11-06T04:08:30.699Z,1001.38
2022-11-06T04:09:30.664Z,1001.40
2022-11-06T04:10:30.694Z,1001.45
2022-11-06T04:11:30.651Z,1001.46
2022-11-06T04:12:30.642Z,1001.47
2022-11-06T04:13:30.629Z,1001.41
2022-11-06T04:14:30.652Z,1001.44
2022-11-06T04:15:30.648Z,1001.40
2022-11-06T04:16:30.622Z,1001.35
2022-11-06T04:17:30.625Z,1001.31
2022-11-06T04:18:30.592Z,1001.31
2022-11-06T04:19:30.563Z,1001.29
2022-11-06T04:20:30.566Z,1001.30
2022-11-06T04:21:30.561Z,1001.28
2022-11-06T04:22:30.557Z,1001.30
2022-11-06T04:23:30.522Z,1001.32
2022-11-06T04:24:30.521Z,1001.36
2022-11-06T04:25:30.520Z,1001.34
2022-11-06T04:26:30.532Z,1001.35
2022-11-06T04:27:30.486Z,1001.36
2022-11-06T04:28:30.473Z,1001.36
2022-11-06T04:29:36.964Z,1001.37
2022-11-06T04:30:30.455Z,1001.38
2022-11-06T04:31:30.431Z,1001.43
2022-11-06T04:32:30.466Z,1001.41
2022-11-06T04:33:30.451Z,1001.42
2022-11-06T04:34:30.417Z,1001.39
2022-11-06T04:35:30.392Z,1001.39
2022-11-06T04:36:30.396Z,1001.31
2022-11-06T04:37:30.402Z,1001.28
2022-11-06T04:38:30.380Z,1001.25
2022-11-06T04:39:30.352Z,1001.26
2022-11-06T04:40:30.350Z,1001.30
2022-11-06T04:41:30.348Z,1001.29
2022-11-06T04:42:30.333Z,1001.32
2022-11-06T04:43:30.325Z,1001.32
2022-11-06T04:44:30.316Z,1001.32
2022-11-06T04:45:30.293Z,1001.27
2022-11-06T04:46:30.291Z,1001.27
2022-11-06T04:47:30.265Z,1001.32
2022-11-06T04:48:30.286Z,1001.28
2022-11-06T04:49:30.251Z,1001.27
2022-11-06T04:50:30.243Z,1001.28
2022-11-06T04:51:30.224Z,1001.28
2022-11-06T04:52:30.245Z,1001.25
2022-11-06T04:53:30.207Z,1001.15
2022-11-06T04:54:30.188Z,1001.16
2022-11-06T04:55:30.178Z,1001.12
2022-11-06T04:56:34.003Z,1001.07
2022-11-06T04:57:30.163Z,1001.06
2022-11-06T04:58:30.228Z,1001.05
2022-11-06T04:59:30.132Z,1001.04
2022-11-06T05:00:30.240Z,1001.05
2022-11-06T05:01:30.292Z,1001.05
2022-11-06T05:02:30.150Z,1001.04
2022-11-06T05:03:30.096Z,1001.04
2022-11-06T05:04:32.036Z,1001.04
2022-11-06T05:05:30.072Z,1001.04
2022-11-06T05:06:30.508Z,1001.03
2022-11-06T05:07:30.159Z,1001.03
2022-11-06T05:08:30.079Z,1001.04
2022-11-06T05:09:30.115Z,1001.02
2022-11-06T05:10:30.058Z,1001.03
2022-11-06T05:11:30.027Z,1001.01
2022-11-06T05:12:30.007Z,1001.01
2022-11-06T05:13:29.993Z,1001.00
2022-11-06T05:14:30.040Z,1000.98
2022-11-06T05:15:29.966Z,1000.96
2022-11-06T05:16:29.970Z,1000.94
2022-11-06T05:17:34.024Z,1000.90
2022-11-06T05:18:29.947Z,1000.93
2022-11-06T05:19:29.923Z,1000.92
2022-11-06T05:20:29.937Z,1000.91
2022-11-06T05:21:29.942Z,1000.89
2022-11-06T05:22:29.900Z,1000.90
2022-11-06T05:23:29.883Z,1000.89
2022-11-06T05:24:29.908Z,1000.87
2022-11-06T05:25:29.888Z,1000.85
2022-11-06T05:26:29.853Z,1000.86
2022-11-06T05:27:29.841Z,1000.84
2022-11-06T05:28:29.840Z,1000.81
2022-11-06T05:29:29.841Z,1000.82
2022-11-06T05:30:29.830Z,1000.80
2022-11-06T05:31:29.958Z,1000.79
2022-11-06T05:32:31.195Z,1000.81
2022-11-06T05:33:29.786Z,1000.76
2022-11-06T05:34:29.780Z,1000.76
2022-11-06T05:35:29.768Z,1000.73
2022-11-06T05:36:29.756Z,1000.70
2022-11-06T05:37:29.737Z,1000.69
2022-11-06T05:38:29.735Z,1000.68
2022-11-06T05:39:29.698Z,1000.67
2022-11-06T05:40:29.732Z,1000.66
2022-11-06T05:41:29.704Z,1000.62
2022-11-06T05:42:29.692Z,1000.58
2022-11-06T05:43:29.667Z,1000.58
2022-11-06T05:44:29.712Z,1000.55
2022-11-06T05:45:29.680Z,1000.58
2022-11-06T05:46:47.557Z,1000.58
2022-11-06T05:47:29.631Z,1000.58
2022-11-06T05:48:29.643Z,1000.58
2022-11-06T05:49:29.601Z,1000.57
2022-11-06T05:50:29.604Z,1000.56
2022-11-06T05:51:29.608Z,1000.59
2022-11-06T05:52:29.632Z,1000.56
2022-11-06T05:53:29.582Z,1000.55
2022-11-06T05:54:29.557Z,1000.54
2022-11-06T05:55:29.538Z,1000.54
2022-11-06T05:56:29.587Z,1000.53
2022-11-06T05:57:29.519Z,1000.52
2022-11-06T05:58:29.506Z,1000.49
2022-11-06T05:59:29.440Z,1000.48
2022-11-06T06:00:29.501Z,1000.49
2022-11-06T06:01:29.537Z,1000.49
2022-11-06T06:02:29.650Z,1000.49
2022-11-06T06:03:29.447Z,1000.47
2022-11-06T06:04:29.459Z,1000.48
2022-11-06T06:05:29.469Z,1000.50
2022-11-06T06:06:29.439Z,1000.50
2022-11-06T06:07:29.358Z,1000.50
2022-11-06T06:08:29.496Z,1000.51
2022-11-06T06:09:29.388Z,1000.49
2022-11-06T06:10:29.345Z,1000.49
2022-11-06T06:11:29.330Z,1000.47
2022-11-06T06:12:29.400Z,1000.46
2022-11-06T06:13:29.290Z,1000.47
2022-11-06T06:14:29.308Z,1000.47
2022-11-06T06:15:29.266Z,1000.54
2022-11-06T06:16:29.291Z,1000.50
2022-11-06T06:17:29.255Z,1000.48
2022-11-06T06:18:29.259Z,1000.47
2022-11-06T06:19:29.228Z,1000.43
2022-11-06T06:20:29.222Z,1000.41
2022-11-06T06:21:29.222Z,1000.39
2022-11-06T06:22:29.208Z,1000.40
2022-11-06T06:23:29.181Z,1000.40
2022-11-06T06:24:29.223Z,1000.44
2022-11-06T06:25:29.240Z,1000.41
2022-11-06T06:26:29.189Z,1000.40
2022-11-06T06:27:29.147Z,1000.40
2022-11-06T06:28:29.141Z,1000.40
2022-11-06T06:29:29.127Z,1000.38
2022-11-06T06:30:29.125Z,1000.38
2022-11-06T06:31:29.102Z,1000.37
2022-11-06T06:32:29.119Z,1000.38
2022-11-06T06:33:29.079Z,1000.38
2022-11-06T06:34:29.076Z,1000.39
2022-11-06T06:35:29.061Z,1000.40
2022-11-06T06:36:29.062Z,1000.40
2022-11-06T06:37:29.035Z,1000.40
2022-11-06T06:38:29.031Z,1000.36
2022-11-06T06:39:29.012Z,1000.32
2022-11-06T06:40:29.013Z,1000.34
2022-11-06T06:41:29.016Z,1000.33
2022-11-06T06:42:31.379Z,1000.35
2022-11-06T06:43:28.969Z,1000.32
2022-11-06T06:44:28.966Z,1000.32
2022-11-06T06:45:28.963Z,1000.32
2022-11-06T06:46:28.962Z,1000.31
2022-11-06T06:47:28.948Z,1000.30
2022-11-06T06:48:28.925Z,1000.34
2022-11-06T06:49:28.912Z,1000.34
2022-11-06T06:50:28.904Z,1000.35
2022-11-06T06:51:28.877Z,1000.37
2022-11-06T06:52:28.903Z,1000.36
2022-11-06T06:53:28.867Z,1000.37
2022-11-06T06:54:28.853Z,1000.35
2022-11-06T06:55:28.850Z,1000.34
2022-11-06T06:56:28.849Z,1000.35
2022-11-06T06:57:28.898Z,1000.34
2022-11-06T06:58:28.828Z,1000.32
2022-11-06T06:59:28.794Z,1000.33
2022-11-06T07:00:28.852Z,1000.34
2022-11-06T07:01:28.972Z,1000.35
2022-11-06T07:02:28.861Z,1000.36
2022-11-06T07:03:28.757Z,1000.36
2022-11-06T07:04:28.756Z,1000.36
2022-11-06T07:05:28.731Z,1000.36
2022-11-06T07:06:28.750Z,1000.36
2022-11-06T07:07:28.735Z,1000.37
2022-11-06T07:08:28.723Z,1000.40
2022-11-06T07:09:28.696Z,1000.40
2022-11-06T07:10:28.866Z,1000.42
2022-11-06T07:11:28.692Z,1000.45
2022-11-06T07:12:28.670Z,1000.45
2022-11-06T07:13:35.183Z,1000.47
2022-11-06T07:14:28.672Z,1000.47
2022-11-06T07:15:28.616Z,1000.50
2022-11-06T07:16:28.645Z,1000.50
2022-11-06T07:17:28.605Z,1000.51
2022-11-06T07:18:28.610Z,1000.51
2022-11-06T07:19:28.586Z,1000.47
2022-11-06T07:20:28.617Z,1000.47
2022-11-06T07:21:28.560Z,1000.48
2022-11-06T07:22:35.572Z,1000.43
2022-11-06T07:23:28.553Z,1000.45
2022-11-06T07:24:28.545Z,1000.44
2022-11-06T07:25:28.525Z,1000.47
2022-11-06T07:26:28.518Z,1000.45
2022-11-06T07:27:28.503Z,1000.48
2022-11-06T07:28:28.511Z,1000.50
2022-11-06T07:29:28.480Z,1000.50
2022-11-06T07:30:28.560Z,1000.47
2022-11-06T07:31:28.466Z,1000.51
2022-11-06T07:32:28.470Z,1000.49
2022-11-06T07:33:28.529Z,1000.49
2022-11-06T07:34:28.434Z,1000.51
2022-11-06T07:35:28.412Z,1000.46
2022-11-06T07:36:28.405Z,1000.45
2022-11-06T07:37:28.497Z,1000.45
2022-11-06T07:38:28.411Z,1000.42
2022-11-06T07:39:28.381Z,1000.50
2022-11-06T07:40:28.552Z,1000.51
2022-11-06T07:41:28.366Z,1000.55
2022-11-06T07:42:28.357Z,1000.59
2022-11-06T07:43:28.344Z,1000.61
2022-11-06T07:44:28.364Z,1000.64
2022-11-06T07:45:28.304Z,1000.66
2022-11-06T07:46:28.323Z,1000.69
2022-11-06T07:47:28.306Z,1000.68
2022-11-06T07:48:28.299Z,1000.69
2022-11-06T07:49:28.288Z,1000.67
2022-11-06T07:50:28.336Z,1000.65
2022-11-06T07:51:28.245Z,1000.62
2022-11-06T07:52:28.242Z,1000.61
2022-11-06T07:53:28.246Z,1000.62
2022-11-06T07:54:28.213Z,1000.61
2022-11-06T07:55:28.202Z,1000.61
2022-11-06T07:56:28.182Z,1000.60
2022-11-06T07:57:28.190Z,1000.59
2022-11-06T07:58:28.169Z,1000.58
2022-11-06T07:59:28.169Z,1000.57
2022-11-06T08:00:28.189Z,1000.55
2022-11-06T08:01:28.255Z,1000.53
2022-11-06T08:02:28.169Z,1000.51
2022-11-06T08:03:28.117Z,1000.45
2022-11-06T08:04:28.123Z,1000.39
2022-11-06T08:05:28.130Z,1000.39
2022-11-06T08:06:28.135Z,1000.36
2022-11-06T08:07:28.073Z,1000.34
2022-11-06T08:08:28.101Z,1000.34
2022-11-06T08:09:28.092Z,1000.27
2022-11-06T08:10:28.096Z,1000.28
2022-11-06T08:11:28.041Z,1000.24
2022-11-06T08:12:28.025Z,1000.25
2022-11-06T08:13:28.026Z,1000.18
2022-11-06T08:14:27.998Z,1000.21
2022-11-06T08:15:28.027Z,1000.25
2022-11-06T08:16:27.987Z,1000.19
2022-11-06T08:17:27.991Z,1000.22
2022-11-06T08:18:27.959Z,1000.20
2022-11-06T08:19:27.962Z,1000.19
2022-11-06T08:20:28.140Z,1000.26
2022-11-06T08:21:27.945Z,1000.21
2022-11-06T08:22:27.910Z,1000.28
2022-11-06T08:23:27.924Z,1000.25
2022-11-06T08:24:27.919Z,1000.25
2022-11-06T08:25:27.914Z,1000.23
2022-11-06T08:26:27.915Z,1000.21
2022-11-06T08:27:27.877Z,1000.16
2022-11-06T08:28:27.957Z,1000.16
2022-11-06T08:29:27.847Z,1000.20
2022-11-06T08:30:27.867Z,1000.21
2022-11-06T08:31:27.817Z,1000.20
2022-11-06T08:32:27.807Z,1000.16
2022-11-06T08:33:27.821Z,1000.14
2022-11-06T08:34:27.782Z,1000.15
2022-11-06T08:35:27.792Z,1000.18
2022-11-06T08:36:27.779Z,1000.12
2022-11-06T08:37:27.771Z,1000.11
2022-11-06T08:38:27.764Z,1000.15
2022-11-06T08:39:27.734Z,1000.08
2022-11-06T08:40:30.948Z,1000.09
2022-11-06T08:41:27.751Z,1000.08
2022-11-06T08:42:27.778Z,1000.10
2022-11-06T08:43:27.744Z,1000.15
2022-11-06T08:44:27.685Z,1000.11
2022-11-06T08:45:27.669Z,1000.17
2022-11-06T08:46:27.679Z,1000.12
2022-11-06T08:47:27.669Z,1000.11
2022-11-06T08:48:27.648Z,1000.11
2022-11-06T08:49:27.635Z,1000.08
2022-11-06T08:50:27.608Z,1000.08
2022-11-06T08:51:27.631Z,1000.08
2022-11-06T08:52:32.777Z,1000.04
2022-11-06T08:53:27.647Z,1000.00
2022-11-06T08:54:27.567Z,1000.01
2022-11-06T08:55:27.567Z,999.95
2022-11-06T08:56:27.561Z,999.98
2022-11-06T08:57:27.579Z,999.95
2022-11-06T08:58:27.531Z,999.91
2022-11-06T08:59:27.518Z,999.93
2022-11-06T09:00:27.519Z,999.86
2022-11-06T09:01:27.611Z,999.88
2022-11-06T09:02:27.560Z,999.87
2022-11-06T09:03:27.500Z,999.81
2022-11-06T09:04:27.464Z,999.81
2022-11-06T09:05:27.462Z,999.83
2022-11-06T09:06:27.451Z,999.84
2022-11-06T09:07:27.438Z,999.83
2022-11-06T09:08:27.446Z,999.78
2022-11-06T09:09:27.435Z,999.80
2022-11-06T09:10:27.400Z,999.76
2022-11-06T09:11:27.465Z,999.78
2022-11-06T09:12:27.414Z,999.82
2022-11-06T09:13:27.491Z,999.76
2022-11-06T09:14:27.466Z,999.75
2022-11-06T09:15:27.368Z,999.75
2022-11-06T09:16:27.357Z,999.72
2022-11-06T09:17:27.367Z,999.71
2022-11-06T09:18:27.375Z,999.67
2022-11-06T09:19:27.424Z,999.70
2022-11-06T09:20:27.292Z,999.71
2022-11-06T09:21:27.286Z,999.66
2022-11-06T09:22:27.279Z,999.70
2022-11-06T09:23:27.253Z,999.72
2022-11-06T09:24:43.599Z,999.66
2022-11-06T09:25:27.311Z,999.73
2022-11-06T09:26:27.410Z,999.71
2022-11-06T09:27:27.232Z,999.71
2022-11-06T09:28:27.225Z,999.66
2022-11-06T09:29:27.207Z,999.63
2022-11-06T09:30:27.207Z,999.57
2022-11-06T09:31:27.215Z,999.57
2022-11-06T09:32:27.177Z,999.56
2022-11-06T09:33:27.181Z,999.55
2022-11-06T09:34:27.158Z,999.61
2022-11-06T09:35:27.147Z,999.56
2022-11-06T09:36:27.121Z,999.57
2022-11-06T09:37:27.121Z,999.58
2022-11-06T09:38:27.141Z,999.56
2022-11-06T09:39:27.092Z,999.55
2022-11-06T09:40:27.081Z,999.50
2022-11-06T09:41:27.082Z,999.48
2022-11-06T09:42:27.051Z,999.47
2022-11-06T09:43:58.047Z,999.41
2022-11-06T09:44:27.062Z,999.44
2022-11-06T09:45:27.030Z,999.40
2022-11-06T09:46:27.013Z,999.42
2022-11-06T09:47:27.009Z,999.40
2022-11-06T09:48:27.000Z,999.36
2022-11-06T09:49:27.013Z,999.37
2022-11-06T09:50:26.966Z,999.34
2022-11-06T09:51:26.965Z,999.38
2022-11-06T09:52:26.949Z,999.37
2022-11-06T09:53:26.942Z,999.35
2022-11-06T09:54:26.956Z,999.33
2022-11-06T09:55:26.935Z,999.36
2022-11-06T09:56:26.918Z,999.29
2022-11-06T09:57:26.916Z,999.41
2022-11-06T09:58:26.905Z,999.35
2022-11-06T09:59:26.888Z,999.32
2022-11-06T10:00:26.926Z,999.33
2022-11-06T10:01:27.642Z,999.32
2022-11-06T10:02:26.984Z,999.33
2022-11-06T10:03:26.869Z,999.32
2022-11-06T10:04:26.856Z,999.28
2022-11-06T10:05:26.829Z,999.26
2022-11-06T10:06:26.816Z,999.26
2022-11-06T10:07:26.803Z,999.26
2022-11-06T10:08:26.781Z,999.23
2022-11-06T10:09:26.809Z,999.25
2022-11-06T10:10:26.783Z,999.29
2022-11-06T10:11:26.773Z,999.28
2022-11-06T10:12:26.736Z,999.23
2022-11-06T10:13:26.737Z,999.24
2022-11-06T10:14:26.715Z,999.25
2022-11-06T10:15:26.907Z,999.26
2022-11-06T10:16:26.699Z,999.24
2022-11-06T10:17:26.698Z,999.23
2022-11-06T10:18:26.678Z,999.24
2022-11-06T10:19:26.676Z,999.23
2022-11-06T10:20:27.500Z,999.20
2022-11-06T10:21:26.642Z,999.21
2022-11-06T10:22:26.676Z,999.23
2022-11-06T10:23:26.623Z,999.22
2022-11-06T10:24:26.612Z,999.23
2022-11-06T10:25:27.120Z,999.20
2022-11-06T10:26:31.208Z,999.13
2022-11-06T10:27:26.622Z,999.14
2022-11-06T10:28:26.587Z,999.16
2022-11-06T10:29:26.569Z,999.13
2022-11-06T10:30:26.552Z,999.10
2022-11-06T10:31:26.549Z,999.10
2022-11-06T10:32:26.527Z,999.11
2022-11-06T10:33:26.522Z,999.12
2022-11-06T10:34:26.497Z,999.12
2022-11-06T10:35:26.518Z,999.12
2022-11-06T10:36:26.488Z,999.10
2022-11-06T10:37:26.480Z,999.13
2022-11-06T10:38:26.478Z,999.16
2022-11-06T10:39:26.451Z,999.20
2022-11-06T10:40:26.457Z,999.14
2022-11-06T10:41:26.486Z,999.17
2022-11-06T10:42:26.407Z,999.10
2022-11-06T10:43:26.413Z,999.10
2022-11-06T10:44:26.397Z,999.09
2022-11-06T10:45:26.434Z,999.06
2022-11-06T10:46:26.367Z,999.07
2022-11-06T10:47:26.357Z,999.02
2022-11-06T10:48:30.487Z,999.03
2022-11-06T10:49:26.350Z,999.03
2022-11-06T10:50:26.334Z,999.02
2022-11-06T10:51:26.366Z,998.98
2022-11-06T10:52:26.337Z,998.98
2022-11-06T10:53:26.304Z,999.00
2022-11-06T10:54:26.286Z,998.99
2022-11-06T10:55:26.275Z,998.94
2022-11-06T10:56:26.276Z,998.91
2022-11-06T10:57:26.276Z,998.85
2022-11-06T10:58:26.254Z,998.86
2022-11-06T10:59:26.242Z,998.85
2022-11-06T11:00:26.220Z,998.80
2022-11-06T11:01:26.379Z,998.76
2022-11-06T11:02:26.304Z,998.74
2022-11-06T11:03:26.198Z,998.73
2022-11-06T11:04:26.238Z,998.72
2022-11-06T11:05:26.179Z,998.71
2022-11-06T11:06:26.154Z,998.72
2022-11-06T11:07:26.155Z,998.71
2022-11-06T11:08:26.132Z,998.65
2022-11-06T11:09:26.135Z,998.62
2022-11-06T11:10:26.114Z,998.62
2022-11-06T11:11:26.135Z,998.58
2022-11-06T11:12:26.132Z,998.56
2022-11-06T11:13:26.090Z,998.53
2022-11-06T11:14:26.091Z,998.55
2022-11-06T11:15:26.077Z,998.48
2022-11-06T11:16:26.159Z,998.44
2022-11-06T11:17:26.049Z,998.44
2022-11-06T11:18:26.182Z,998.47
2022-11-06T11:19:26.028Z,998.44
2022-11-06T11:20:26.002Z,998.42
2022-11-06T11:21:26.001Z,998.42
2022-11-06T11:22:31.953Z,998.41
2022-11-06T11:23:26.137Z,998.43
2022-11-06T11:24:26.009Z,998.41
2022-11-06T11:25:25.979Z,998.42
2022-11-06T11:26:25.944Z,998.42
2022-11-06T11:27:25.944Z,998.42
2022-11-06T11:28:25.938Z,998.36
2022-11-06T11:29:25.929Z,998.38
2022-11-06T11:30:25.949Z,998.38
2022-11-06T11:31:25.973Z,998.37
2022-11-06T11:32:25.933Z,998.34
2022-11-06T11:33:25.942Z,998.33
2022-11-06T11:34:25.885Z,998.35
2022-11-06T11:35:25.857Z,998.27
2022-11-06T11:36:25.836Z,998.29
2022-11-06T11:37:25.840Z,998.26
2022-11-06T11:38:25.814Z,998.29
2022-11-06T11:39:25.822Z,998.24
2022-11-06T11:40:25.805Z,998.21
2022-11-06T11:41:25.797Z,998.21
2022-11-06T11:42:25.768Z,998.16
2022-11-06T11:43:25.779Z,998.15
2022-11-06T11:44:25.807Z,998.13
2022-11-06T11:45:25.767Z,998.13
2022-11-06T11:46:25.737Z,998.11
2022-11-06T11:47:25.719Z,998.08
2022-11-06T11:48:25.712Z,998.01
2022-11-06T11:49:25.772Z,997.97
2022-11-06T11:50:25.732Z,997.96
2022-11-06T11:51:25.694Z,997.90
2022-11-06T11:52:25.673Z,997.85
2022-11-06T11:53:25.669Z,997.82
2022-11-06T11:54:25.648Z,997.78
2022-11-06T11:55:25.658Z,997.80
2022-11-06T11:56:49.713Z,997.77
2022-11-06T11:57:25.639Z,997.78
2022-11-06T11:58:25.610Z,997.75
2022-11-06T11:59:25.616Z,997.71
2022-11-06T12:00:25.598Z,997.71
2022-11-06T12:01:25.582Z,997.67
2022-11-06T12:02:27.545Z,997.65
2022-11-06T12:03:25.607Z,997.64
2022-11-06T12:04:25.550Z,997.66
2022-11-06T12:05:25.537Z,997.69
2022-11-06T12:06:25.563Z,997.64
2022-11-06T12:07:25.519Z,997.68
2022-11-06T12:08:25.509Z,997.62
2022-11-06T12:09:25.487Z,997.58
2022-11-06T12:10:25.495Z,997.54
2022-11-06T12:11:25.477Z,997.53